createdAt,value
2022-11-30T00:01:23.629Z,5.12
2022-11-30T00:06:24.983Z,5.27
2022-11-30T00:11:25.574Z,5.13
2022-11-30T00:16:24.548Z,4.99
2022-11-30T00:21:24.857Z,5.05
2022-11-30T00:26:23.773Z,4.95
2022-11-30T00:31:22.715Z,5.07
2022-11-30T00:36:23.191Z,5.16
2022-11-30T00:41:23.378Z,5.02
2022-11-30T00:46:22.328Z,5.01
2022-11-30T00:51:21.196Z,5.07
2022-11-30T00:56:20.101Z,5.08
2022-11-30T01:01:20.495Z,5.29
2022-11-30T01:06:19.460Z,5.05
2022-11-30T01:11:22.458Z,5.01
2022-11-30T01:16:25.192Z,5.11
2022-11-30T01:21:26.161Z,5.01
2022-11-30T01:26:26.139Z,5.10
2022-11-30T01:31:26.678Z,5.24
2022-11-30T01:36:27.727Z,5.25
2022-11-30T01:41:29.491Z,5.36
2022-11-30T01:46:35.265Z,5.33
2022-11-30T01:51:38.174Z,5.24
2022-11-30T01:56:37.669Z,5.29
2022-11-30T02:01:38.157Z,5.44
2022-11-30T02:06:37.259Z,5.39
2022-11-30T02:11:36.136Z,5.18
2022-11-30T02:16:49.026Z,5.04
2022-11-30T02:21:54.833Z,5.05
2022-11-30T02:27:05.315Z,5.25
2022-11-30T02:32:11.037Z,5.07
2022-11-30T02:37:13.942Z,5.19
2022-11-30T02:42:14.455Z,4.98
2022-11-30T02:47:22.557Z,4.92
2022-11-30T02:52:25.415Z,4.91
2022-11-30T02:57:24.409Z,4.75
2022-11-30T03:02:25.370Z,4.78
2022-11-30T03:07:27.137Z,4.90
2022-11-30T03:12:26.130Z,5.11
2022-11-30T03:17:27.603Z,5.38
2022-11-30T03:22:26.920Z,5.44
2022-11-30T03:27:25.933Z,5.24
2022-11-30T03:32:28.925Z,5.24
2022-11-30T03:37:27.756Z,5.14
2022-11-30T03:42:26.815Z,5.25
2022-11-30T03:47:27.069Z,5.34
2022-11-30T03:52:25.974Z,5.18
2022-11-30T03:57:24.723Z,5.27
2022-11-30T04:02:23.564Z,5.25
2022-11-30T04:07:24.161Z,5.00
2022-11-30T04:12:23.139Z,4.94
2022-11-30T04:17:22.081Z,4.96
2022-11-30T04:22:21.032Z,5.10
2022-11-30T04:27:21.328Z,4.63
2022-11-30T04:32:20.246Z,4.67
2022-11-30T04:37:19.231Z,4.66
2022-11-30T04:42:18.247Z,4.49
2022-11-30T04:47:18.483Z,4.75
2022-11-30T04:52:17.456Z,4.70
2022-11-30T04:57:16.281Z,4.59
2022-11-30T05:02:15.387Z,4.92
2022-11-30T05:07:15.606Z,5.07
2022-11-30T05:12:14.545Z,5.19
2022-11-30T05:17:14.810Z,5.32
2022-11-30T05:22:13.658Z,5.33
2022-11-30T05:27:19.362Z,5.22
2022-11-30T05:32:21.183Z,5.01
2022-11-30T05:37:20.261Z,4.83
2022-11-30T05:42:20.620Z,4.82
2022-11-30T05:47:20.900Z,4.79
2022-11-30T05:52:20.047Z,4.84
2022-11-30T05:57:20.493Z,4.85
2022-11-30T06:02:23.729Z,4.95
2022-11-30T06:07:26.552Z,4.75
2022-11-30T06:12:26.840Z,4.62
2022-11-30T06:17:25.714Z,4.65
2022-11-30T06:22:24.532Z,4.73
2022-11-30T06:27:23.395Z,4.55
2022-11-30T06:32:23.618Z,4.55
2022-11-30T06:37:22.518Z,4.68
2022-11-30T06:42:21.521Z,4.56
2022-11-30T06:47:20.566Z,4.66
2022-11-30T06:52:21.022Z,4.70
2022-11-30T06:57:20.065Z,4.59
2022-11-30T07:02:19.217Z,4.53
2022-11-30T07:07:18.346Z,4.22
2022-11-30T07:12:19.091Z,4.22
2022-11-30T07:17:17.938Z,4.30
2022-11-30T07:22:17.265Z,4.47
2022-11-30T07:27:16.423Z,4.45
2022-11-30T07:32:19.219Z,4.47
2022-11-30T07:37:18.249Z,4.31
2022-11-30T07:42:18.797Z,4.43
2022-11-30T07:47:19.223Z,4.60
2022-11-30T07:52:18.232Z,4.48
2022-11-30T07:57:17.295Z,4.42
2022-11-30T08:02:16.752Z,4.33
2022-11-30T08:07:19.446Z,4.47
2022-11-30T08:12:19.077Z,4.60
2022-11-30T08:17:18.794Z,4.66
2022-11-30T08:22:19.529Z,4.75
2022-11-30T08:27:18.675Z,4.78
2022-11-30T08:32:17.790Z,4.51
2022-11-30T08:37:18.215Z,4.60
2022-11-30T08:42:17.341Z,4.57
2022-11-30T08:47:16.602Z,4.68
2022-11-30T08:52:17.429Z,4.88
2022-11-30T08:57:20.516Z,4.47
2022-11-30T09:02:20.886Z,4.87
2022-11-30T09:07:20.087Z,4.83
2022-11-30T09:12:20.686Z,4.80
2022-11-30T09:17:19.644Z,4.82
2022-11-30T09:22:18.652Z,4.60
2022-11-30T09:27:17.666Z,4.60
2022-11-30T09:32:18.116Z,4.52
2022-11-30T09:37:16.998Z,4.47
2022-11-30T09:42:27.529Z,4.63
2022-11-30T09:47:50.594Z,4.56
2022-11-30T09:52:53.431Z,4.37
2022-11-30T09:57:56.396Z,4.52
2022-11-30T10:02:59.025Z,4.66
2022-11-30T10:08:30.024Z,4.67
2022-11-30T10:13:45.449Z,4.70
2022-11-30T10:18:54.085Z,4.61
2022-11-30T10:24:07.247Z,4.83
2022-11-30T10:29:18.144Z,4.84
2022-11-30T10:34:24.508Z,5.05
2022-11-30T10:39:30.978Z,4.83
2022-11-30T10:44:33.445Z,4.91
2022-11-30T10:49:35.334Z,4.92
2022-11-30T10:54:37.531Z,4.97
2022-11-30T10:59:44.620Z,5.11
2022-11-30T11:04:45.196Z,5.05
2022-11-30T11:09:47.592Z,5.06
2022-11-30T11:14:46.832Z,4.86
2022-11-30T11:19:49.877Z,4.84
2022-11-30T11:24:50.752Z,4.85
2022-11-30T11:30:01.682Z,4.88
2022-11-30T11:35:02.293Z,4.74
2022-11-30T11:40:05.722Z,4.73
2022-11-30T11:45:06.040Z,4.61
2022-11-30T11:50:50.312Z,4.57
2022-11-30T11:55:46.533Z,4.47
2022-11-30T12:00:47.717Z,4.61
2022-11-30T12:05:52.849Z,4.80
2022-11-30T12:10:56.774Z,4.74
2022-11-30T12:16:08.205Z,4.69
2022-11-30T12:21:15.048Z,4.61
2022-11-30T12:26:24.311Z,4.82
2022-11-30T12:31:31.555Z,4.86
2022-11-30T12:36:47.523Z,4.75
2022-11-30T12:41:52.768Z,4.78
2022-11-30T12:47:00.056Z,4.83
2022-11-30T12:52:10.508Z,4.94
2022-11-30T12:57:18.033Z,4.91
2022-11-30T13:02:42.120Z,4.90
2022-11-30T13:07:47.705Z,5.19
2022-11-30T13:12:52.128Z,5.00
2022-11-30T13:17:52.056Z,5.03
2022-11-30T13:22:58.924Z,5.20
2022-11-30T13:28:13.149Z,5.06
2022-11-30T13:33:40.385Z,4.74
2022-11-30T13:38:40.991Z,4.92
2022-11-30T13:43:47.859Z,4.91
2022-11-30T13:48:49.703Z,4.93
2022-11-30T13:53:50.312Z,4.91
2022-11-30T13:59:23.722Z,5.05
2022-11-30T14:04:34.660Z,5.26
2022-11-30T14:10:01.091Z,4.92
2022-11-30T14:15:00.702Z,4.91
2022-11-30T14:20:09.362Z,4.96
2022-11-30T14:25:15.200Z,4.84
2022-11-30T14:30:19.131Z,4.83
2022-11-30T14:35:20.328Z,5.00
2022-11-30T14:40:25.081Z,5.04
2022-11-30T14:45:29.751Z,4.56
2022-11-30T14:50:28.695Z,4.44
2022-11-30T14:55:33.745Z,4.64
2022-11-30T15:00:39.037Z,4.47
2022-11-30T15:05:41.019Z,4.57
2022-11-30T15:10:46.490Z,4.70
2022-11-30T15:15:52.907Z,4.61
2022-11-30T15:20:57.478Z,4.50
2022-11-30T15:26:02.452Z,4.38
2022-11-30T15:31:06.069Z,4.32
2022-11-30T15:36:22.977Z,4.27
2022-11-30T15:41:27.058Z,4.18
2022-11-30T15:46:31.732Z,4.09
2022-11-30T15:51:39.431Z,4.16
2022-11-30T15:56:39.817Z,3.79
2022-11-30T16:02:02.353Z,3.74
2022-11-30T16:07:05.554Z,3.57
2022-11-30T16:12:06.324Z,3.61
2022-11-30T16:17:08.949Z,3.63
2022-11-30T16:22:11.021Z,3.69
2022-11-30T16:27:17.554Z,3.67
2022-11-30T16:32:17.421Z,3.60
2022-11-30T16:37:16.329Z,3.60
2022-11-30T16:42:16.916Z,3.47
2022-11-30T16:47:16.210Z,3.59
2022-11-30T16:52:18.957Z,3.83
2022-11-30T16:57:22.625Z,3.67
2022-11-30T17:02:25.128Z,3.81
2022-11-30T17:07:25.734Z,3.81
2022-11-30T17:12:29.226Z,3.59
2022-11-30T17:17:31.293Z,3.59
2022-11-30T17:22:31.020Z,3.61
2022-11-30T17:27:40.552Z,3.64
2022-11-30T17:32:39.970Z,3.76
2022-11-30T17:37:40.109Z,3.76
2022-11-30T17:43:00.195Z,3.75
2022-11-30T17:48:10.368Z,3.63
2022-11-30T17:53:21.271Z,3.56
2022-11-30T17:58:23.987Z,3.55
2022-11-30T18:03:24.086Z,3.63
2022-11-30T18:08:23.386Z,3.86
2022-11-30T18:13:24.382Z,3.68
2022-11-30T18:18:24.038Z,3.69
2022-11-30T18:23:23.382Z,3.70
2022-11-30T18:28:24.002Z,3.75
2022-11-30T18:33:24.477Z,3.63
2022-11-30T18:38:34.175Z,3.61
2022-11-30T18:43:40.093Z,3.83
2022-11-30T18:48:41.063Z,3.86
2022-11-30T18:53:40.140Z,3.90
2022-11-30T18:58:40.984Z,3.76
2022-11-30T19:03:40.756Z,4.01
2022-11-30T19:08:41.865Z,4.14
2022-11-30T19:13:45.005Z,4.16
2022-11-30T19:18:46.185Z,4.05
2022-11-30T19:23:46.716Z,4.03
2022-11-30T19:28:48.238Z,4.04
2022-11-30T19:33:52.627Z,3.99
2022-11-30T19:39:03.847Z,4.08
2022-11-30T19:44:05.702Z,4.09
2022-11-30T19:49:11.540Z,4.07
2022-11-30T19:54:15.812Z,4.05
2022-11-30T19:59:28.495Z,3.99
2022-11-30T20:04:32.239Z,4.00
2022-11-30T20:09:35.189Z,3.99
2022-11-30T20:14:37.098Z,3.95
2022-11-30T20:19:36.208Z,4.13
2022-11-30T20:24:35.364Z,3.96
2022-11-30T20:29:36.266Z,3.87
2022-11-30T20:34:42.369Z,3.78
2022-11-30T20:39:46.027Z,3.88
2022-11-30T20:44:47.588Z,3.82
2022-11-30T20:49:50.037Z,3.79
2022-11-30T20:54:53.092Z,3.70
2022-11-30T20:59:55.853Z,3.79
2022-11-30T21:04:55.264Z,3.84
2022-11-30T21:09:55.727Z,3.58
2022-11-30T21:16:13.218Z,3.85
2022-11-30T21:28:20.613Z,3.30
2022-11-30T21:39:02.829Z,3.37
2022-11-30T21:44:06.896Z,3.62
2022-11-30T21:49:06.144Z,3.62
2022-11-30T21:54:07.611Z,3.58
2022-11-30T21:59:10.323Z,3.69
2022-11-30T22:04:10.801Z,3.53
2022-11-30T22:09:13.958Z,3.52
2022-11-30T22:14:16.826Z,3.22
2022-11-30T22:19:16.497Z,3.04
2022-11-30T22:24:15.487Z,3.01
2022-11-30T22:29:17.296Z,2.93
2022-11-30T22:34:16.247Z,3.04
2022-11-30T22:39:16.891Z,3.38
2022-11-30T22:44:18.954Z,3.29
2022-11-30T22:49:21.989Z,3.26
2022-11-30T22:54:21.140Z,3.35
2022-11-30T22:59:21.479Z,3.44
2022-11-30T23:04:23.144Z,3.53
2022-11-30T23:09:24.273Z,3.40
2022-11-30T23:14:24.734Z,3.65
2022-11-30T23:19:23.620Z,3.95
2022-11-30T23:24:22.607Z,3.92
2022-11-30T23:29:21.415Z,3.55
2022-11-30T23:34:22.889Z,3.67
2022-11-30T23:39:22.261Z,3.66
2022-11-30T23:44:21.134Z,3.65
2022-11-30T23:49:21.286Z,3.58
2022-11-30T23:54:20.352Z,3.42
2022-11-30T23:59:19.202Z,3.40
